sensor_id;sensor_type;location;lat;lon;timestamp;pressure;altitude;pressure_sealevel;temperature;humidity
21803;BME280;18591;47.080;22.214;2023-12-20T00:01:43;99782.44;;;4.45;60.18
21803;BME280;18591;47.080;22.214;2023-12-20T00:03:46;99774.50;;;4.41;60.45
21803;BME280;18591;47.080;22.214;2023-12-20T00:05:48;99777.16;;;4.41;60.01
21803;BME280;18591;47.080;22.214;2023-12-20T00:07:51;99769.19;;;4.39;60.20
21803;BME280;18591;47.080;22.214;2023-12-20T00:09:53;99766.63;;;4.28;60.38
21803;BME280;18591;47.080;22.214;2023-12-20T00:11:56;99758.63;;;4.31;60.68
21803;BME280;18591;47.080;22.214;2023-12-20T00:13:58;99761.28;;;4.31;60.50
21803;BME280;18591;47.080;22.214;2023-12-20T00:16:01;99757.69;;;4.34;60.49
21803;BME280;18591;47.080;22.214;2023-12-20T00:18:03;99749.75;;;4.31;60.29
21803;BME280;18591;47.080;22.214;2023-12-20T00:20:07;99753.28;;;4.31;60.29
21803;BME280;18591;47.080;22.214;2023-12-20T00:22:09;99756.94;;;4.23;60.77
21803;BME280;18591;47.080;22.214;2023-12-20T00:24:12;99754.25;;;4.27;60.67
21803;BME280;18591;47.080;22.214;2023-12-20T00:26:14;99750.66;;;4.28;60.43
21803;BME280;18591;47.080;22.214;2023-12-20T00:28:17;99743.59;;;4.27;60.45
21803;BME280;18591;47.080;22.214;2023-12-20T00:30:19;99741.84;;;4.23;60.21
21803;BME280;18591;47.080;22.214;2023-12-20T00:32:21;99744.50;;;4.25;60.05
21803;BME280;18591;47.080;22.214;2023-12-20T00:34:24;99745.47;;;4.16;60.57
21803;BME280;18591;47.080;22.214;2023-12-20T00:36:26;99736.56;;;4.19;60.38
21803;BME280;18591;47.080;22.214;2023-12-20T00:38:29;99725.03;;;4.21;60.53
21803;BME280;18591;47.080;22.214;2023-12-20T00:40:31;99729.47;;;4.21;60.95
21803;BME280;18591;47.080;22.214;2023-12-20T00:42:33;99720.63;;;4.22;60.91
21803;BME280;18591;47.080;22.214;2023-12-20T00:44:36;99729.53;;;4.14;61.08
21803;BME280;18591;47.080;22.214;2023-12-20T00:46:38;99720.63;;;4.20;60.63
21803;BME280;18591;47.080;22.214;2023-12-20T00:48:41;99715.41;;;4.09;60.66
21803;BME280;18591;47.080;22.214;2023-12-20T00:50:44;99714.44;;;4.17;60.62
21803;BME280;18591;47.080;22.214;2023-12-20T00:52:46;99719.88;;;4.03;61.15
21803;BME280;18591;47.080;22.214;2023-12-20T00:54:49;99704.72;;;4.12;60.57
21803;BME280;18591;47.080;22.214;2023-12-20T00:56:51;99705.56;;;4.18;60.44
21803;BME280;18591;47.080;22.214;2023-12-20T00:58:53;99701.22;;;4.07;60.78
21803;BME280;18591;47.080;22.214;2023-12-20T01:00:56;99703.88;;;4.06;60.92
21803;BME280;18591;47.080;22.214;2023-12-20T01:03:00;99694.13;;;4.08;60.75
21803;BME280;18591;47.080;22.214;2023-12-20T01:05:02;99694.19;;;4.00;60.97
21803;BME280;18591;47.080;22.214;2023-12-20T01:07:05;99686.19;;;4.03;60.89
21803;BME280;18591;47.080;22.214;2023-12-20T01:09:07;99692.47;;;3.95;61.01
21803;BME280;18591;47.080;22.214;2023-12-20T01:11:10;99687.13;;;3.98;60.60
21803;BME280;18591;47.080;22.214;2023-12-20T01:13:12;99679.16;;;3.99;60.72
21803;BME280;18591;47.080;22.214;2023-12-20T01:15:15;99677.34;;;4.04;60.67
21803;BME280;18591;47.080;22.214;2023-12-20T01:17:17;99673.00;;;3.94;60.94
21803;BME280;18591;47.080;22.214;2023-12-20T01:19:20;99668.56;;;3.96;60.90
21803;BME280;18591;47.080;22.214;2023-12-20T01:21:23;99666.91;;;3.83;61.14
21803;BME280;18591;47.080;22.214;2023-12-20T01:23:26;99651.69;;;3.96;60.54
21803;BME280;18591;47.080;22.214;2023-12-20T01:25:28;99656.22;;;3.90;60.74
21803;BME280;18591;47.080;22.214;2023-12-20T01:27:30;99644.72;;;3.87;61.05
21803;BME280;18591;47.080;22.214;2023-12-20T01:29:33;99639.34;;;3.90;60.88
21803;BME280;18591;47.080;22.214;2023-12-20T01:31:35;99636.88;;;3.71;61.34
21803;BME280;18591;47.080;22.214;2023-12-20T01:33:38;99634.22;;;3.73;61.64
21803;BME280;18591;47.080;22.214;2023-12-20T01:35:40;99632.41;;;3.77;61.56
21803;BME280;18591;47.080;22.214;2023-12-20T01:37:43;99632.41;;;3.77;61.90
21803;BME280;18591;47.080;22.214;2023-12-20T01:39:45;99627.97;;;3.79;62.06
21803;BME280;18591;47.080;22.214;2023-12-20T01:41:48;99627.06;;;3.81;61.34
21803;BME280;18591;47.080;22.214;2023-12-20T01:43:50;99614.59;;;3.86;61.07
21803;BME280;18591;47.080;22.214;2023-12-20T01:45:56;99607.44;;;3.95;61.46
21803;BME280;18591;47.080;22.214;2023-12-20T01:47:59;99608.41;;;3.86;62.29
21803;BME280;18591;47.080;22.214;2023-12-20T01:50:04;99601.28;;;3.91;61.82
21803;BME280;18591;47.080;22.214;2023-12-20T01:52:07;99595.00;;;3.97;61.77
21803;BME280;18591;47.080;22.214;2023-12-20T01:54:14;99589.72;;;3.92;62.02
21803;BME280;18591;47.080;22.214;2023-12-20T01:56:16;99601.31;;;3.86;62.25
21803;BME280;18591;47.080;22.214;2023-12-20T01:58:19;99585.31;;;3.91;61.97
21803;BME280;18591;47.080;22.214;2023-12-20T02:00:22;99581.78;;;3.90;62.00
21803;BME280;18591;47.080;22.214;2023-12-20T02:02:27;99567.69;;;3.82;62.67
21803;BME280;18591;47.080;22.214;2023-12-20T02:04:30;99569.41;;;3.86;62.56
21803;BME280;18591;47.080;22.214;2023-12-20T02:06:33;99572.06;;;3.88;62.54
21803;BME280;18591;47.080;22.214;2023-12-20T02:08:36;99564.84;;;3.98;62.38
21803;BME280;18591;47.080;22.214;2023-12-20T02:10:39;99555.13;;;3.95;62.53
21803;BME280;18591;47.080;22.214;2023-12-20T02:12:43;99550.66;;;4.00;61.82
21803;BME280;18591;47.080;22.214;2023-12-20T02:14:45;99544.47;;;4.01;61.81
21803;BME280;18591;47.080;22.214;2023-12-20T02:16:48;99540.88;;;4.01;62.25
21803;BME280;18591;47.080;22.214;2023-12-20T02:18:50;99546.25;;;3.99;62.28
21803;BME280;18591;47.080;22.214;2023-12-20T02:20:53;99534.75;;;3.97;62.03
21803;BME280;18591;47.080;22.214;2023-12-20T02:22:55;99532.09;;;3.96;61.76
21803;BME280;18591;47.080;22.214;2023-12-20T02:24:58;99526.78;;;3.96;61.66
21803;BME280;18591;47.080;22.214;2023-12-20T02:27:00;99519.72;;;3.95;61.87
21803;BME280;18591;47.080;22.214;2023-12-20T02:29:02;99520.66;;;3.89;61.88
21803;BME280;18591;47.080;22.214;2023-12-20T02:31:05;99520.66;;;3.90;61.83
21803;BME280;18591;47.080;22.214;2023-12-20T02:33:10;99521.53;;;3.91;61.66
21803;BME280;18591;47.080;22.214;2023-12-20T02:35:14;99521.53;;;3.91;61.57
21803;BME280;18591;47.080;22.214;2023-12-20T02:37:17;99523.31;;;3.87;61.49
21803;BME280;18591;47.080;22.214;2023-12-20T02:39:20;99512.69;;;3.90;61.36
21803;BME280;18591;47.080;22.214;2023-12-20T02:41:23;99506.50;;;3.87;61.49
21803;BME280;18591;47.080;22.214;2023-12-20T02:43:25;99503.81;;;3.91;61.38
21803;BME280;18591;47.080;22.214;2023-12-20T02:45:28;99508.28;;;3.86;61.60
21803;BME280;18591;47.080;22.214;2023-12-20T02:47:30;99508.31;;;3.85;61.39
21803;BME280;18591;47.080;22.214;2023-12-20T02:49:33;99502.06;;;3.87;61.65
21803;BME280;18591;47.080;22.214;2023-12-20T02:51:35;99498.56;;;3.85;61.37
21803;BME280;18591;47.080;22.214;2023-12-20T02:53:40;99501.31;;;3.75;61.79
21803;BME280;18591;47.080;22.214;2023-12-20T02:55:43;99500.38;;;3.83;61.73
21803;BME280;18591;47.080;22.214;2023-12-20T02:57:45;99499.53;;;3.77;62.03
21803;BME280;18591;47.080;22.214;2023-12-20T02:59:48;99504.78;;;3.84;61.33
21803;BME280;18591;47.080;22.214;2023-12-20T03:01:50;99490.59;;;3.84;61.59
21803;BME280;18591;47.080;22.214;2023-12-20T03:03:53;99500.31;;;3.85;61.20
21803;BME280;18591;47.080;22.214;2023-12-20T03:05:55;99495.09;;;3.80;61.39
21803;BME280;18591;47.080;22.214;2023-12-20T03:07:58;99489.78;;;3.77;61.11
21803;BME280;18591;47.080;22.214;2023-12-20T03:10:00;99484.50;;;3.76;61.14
21803;BME280;18591;47.080;22.214;2023-12-20T03:12:20;99492.53;;;3.71;61.29
21803;BME280;18591;47.080;22.214;2023-12-20T03:14:23;99489.88;;;3.69;61.61
21803;BME280;18591;47.080;22.214;2023-12-20T03:16:26;99484.53;;;3.73;61.42
21803;BME280;18591;47.080;22.214;2023-12-20T03:18:28;99480.16;;;3.68;61.29
21803;BME280;18591;47.080;22.214;2023-12-20T03:20:31;99474.81;;;3.71;61.11
21803;BME280;18591;47.080;22.214;2023-12-20T03:22:36;99475.00;;;3.53;61.24
21803;BME280;18591;47.080;22.214;2023-12-20T03:24:38;99474.84;;;3.67;61.16
21803;BME280;18591;47.080;22.214;2023-12-20T03:26:41;99466.94;;;3.62;61.57
21803;BME280;18591;47.080;22.214;2023-12-20T03:28:43;99466.91;;;3.65;61.24
21803;BME280;18591;47.080;22.214;2023-12-20T03:30:45;99469.63;;;3.59;61.53
21803;BME280;18591;47.080;22.214;2023-12-20T03:32:48;99467.78;;;3.66;61.37
21803;BME280;18591;47.080;22.214;2023-12-20T03:34:50;99469.56;;;3.64;61.48
21803;BME280;18591;47.080;22.214;2023-12-20T03:36:53;99472.22;;;3.64;61.10
21803;BME280;18591;47.080;22.214;2023-12-20T03:38:55;99464.28;;;3.61;60.90
21803;BME280;18591;47.080;22.214;2023-12-20T03:40:58;99460.72;;;3.62;60.80
21803;BME280;18591;47.080;22.214;2023-12-20T03:43:00;99461.69;;;3.56;61.33
21803;BME280;18591;47.080;22.214;2023-12-20T03:45:03;99464.34;;;3.56;60.88
21803;BME280;18591;47.080;22.214;2023-12-20T03:47:06;99457.25;;;3.58;60.98
21803;BME280;18591;47.080;22.214;2023-12-20T03:49:08;99449.34;;;3.51;61.39
21803;BME280;18591;47.080;22.214;2023-12-20T03:51:11;99440.47;;;3.55;61.10
21803;BME280;18591;47.080;22.214;2023-12-20T03:53:14;99446.78;;;3.44;61.13
21803;BME280;18591;47.080;22.214;2023-12-20T03:55:16;99444.22;;;3.35;61.38
21803;BME280;18591;47.080;22.214;2023-12-20T03:57:19;99444.25;;;3.32;61.58
21803;BME280;18591;47.080;22.214;2023-12-20T03:59:22;99439.84;;;3.30;61.05
21803;BME280;18591;47.080;22.214;2023-12-20T04:01:24;99434.38;;;3.43;61.10
21803;BME280;18591;47.080;22.214;2023-12-20T04:03:28;99436.25;;;3.37;61.29
21803;BME280;18591;47.080;22.214;2023-12-20T04:05:30;99445.91;;;3.41;60.88
21803;BME280;18591;47.080;22.214;2023-12-20T04:07:33;99436.16;;;3.41;60.81
21803;BME280;18591;47.080;22.214;2023-12-20T04:09:36;99445.94;;;3.38;60.88
21803;BME280;18591;47.080;22.214;2023-12-20T04:11:38;99440.66;;;3.38;61.09
21803;BME280;18591;47.080;22.214;2023-12-20T04:13:41;99437.06;;;3.40;61.01
21803;BME280;18591;47.080;22.214;2023-12-20T04:15:43;99435.25;;;3.44;60.86
21803;BME280;18591;47.080;22.214;2023-12-20T04:17:46;99426.53;;;3.34;60.71
21803;BME280;18591;47.080;22.214;2023-12-20T04:19:49;99424.72;;;3.39;60.56
21803;BME280;18591;47.080;22.214;2023-12-20T04:21:52;99425.69;;;3.29;60.77
21803;BME280;18591;47.080;22.214;2023-12-20T04:23:54;99418.59;;;3.30;60.68
21803;BME280;18591;47.080;22.214;2023-12-20T04:25:57;99423.91;;;3.28;60.38
21803;BME280;18591;47.080;22.214;2023-12-20T04:27:59;99411.59;;;3.22;60.24
21803;BME280;18591;47.080;22.214;2023-12-20T04:30:01;99416.00;;;3.23;60.48
21803;BME280;18591;47.080;22.214;2023-12-20T04:32:05;99405.53;;;3.10;60.90
21803;BME280;18591;47.080;22.214;2023-12-20T04:34:07;99399.28;;;3.15;60.81
21803;BME280;18591;47.080;22.214;2023-12-20T04:36:10;99402.81;;;3.16;60.85
21803;BME280;18591;47.080;22.214;2023-12-20T04:38:12;99405.41;;;3.20;60.58
21803;BME280;18591;47.080;22.214;2023-12-20T04:40:15;99397.66;;;3.02;60.96
21803;BME280;18591;47.080;22.214;2023-12-20T04:42:17;99394.91;;;3.08;60.57
21803;BME280;18591;47.080;22.214;2023-12-20T04:44:20;99400.38;;;2.94;60.89
21803;BME280;18591;47.080;22.214;2023-12-20T04:46:22;99397.72;;;2.94;61.12
21803;BME280;18591;47.080;22.214;2023-12-20T04:48:28;99385.25;;;3.04;60.64
21803;BME280;18591;47.080;22.214;2023-12-20T04:50:35;99398.66;;;2.87;60.78
21803;BME280;18591;47.080;22.214;2023-12-20T04:52:37;99385.31;;;2.96;60.83
21803;BME280;18591;47.080;22.214;2023-12-20T04:54:40;99387.06;;;2.99;60.59
21803;BME280;18591;47.080;22.214;2023-12-20T04:56:46;99376.63;;;2.80;60.42
21803;BME280;18591;47.080;22.214;2023-12-20T04:58:48;99374.75;;;2.93;60.31
21803;BME280;18591;47.080;22.214;2023-12-20T05:00:51;99383.66;;;2.84;60.71
21803;BME280;18591;47.080;22.214;2023-12-20T05:02:53;99374.81;;;2.84;60.90
21803;BME280;18591;47.080;22.214;2023-12-20T05:04:56;99378.31;;;2.88;60.69
21803;BME280;18591;47.080;22.214;2023-12-20T05:06:58;99386.31;;;2.84;61.10
21803;BME280;18591;47.080;22.214;2023-12-20T05:09:01;99376.56;;;2.88;60.68
21803;BME280;18591;47.080;22.214;2023-12-20T05:11:04;99381.88;;;2.88;60.67
21803;BME280;18591;47.080;22.214;2023-12-20T05:13:06;99387.25;;;2.80;60.51
21803;BME280;18591;47.080;22.214;2023-12-20T05:15:10;99377.56;;;2.76;61.08
21803;BME280;18591;47.080;22.214;2023-12-20T05:17:12;99374.06;;;2.70;60.78
21803;BME280;18591;47.080;22.214;2023-12-20T05:19:15;99372.25;;;2.75;61.47
21803;BME280;18591;47.080;22.214;2023-12-20T05:21:17;99370.50;;;2.75;61.44
21803;BME280;18591;47.080;22.214;2023-12-20T05:23:19;99374.88;;;2.81;61.27
21803;BME280;18591;47.080;22.214;2023-12-20T05:25:22;99372.31;;;2.67;61.59
21803;BME280;18591;47.080;22.214;2023-12-20T05:27:25;99374.03;;;2.74;61.29
21803;BME280;18591;47.080;22.214;2023-12-20T05:29:27;99376.75;;;2.67;61.49
21803;BME280;18591;47.080;22.214;2023-12-20T05:31:30;99373.16;;;2.72;61.38
21803;BME280;18591;47.080;22.214;2023-12-20T05:33:33;99373.25;;;2.63;61.58
21803;BME280;18591;47.080;22.214;2023-12-20T05:35:35;99374.06;;;2.73;60.99
21803;BME280;18591;47.080;22.214;2023-12-20T05:37:38;99375.81;;;2.75;61.18
21803;BME280;18591;47.080;22.214;2023-12-20T05:39:40;99377.56;;;2.76;61.00
21803;BME280;18591;47.080;22.214;2023-12-20T05:41:43;99386.44;;;2.69;61.25
21803;BME280;18591;47.080;22.214;2023-12-20T05:43:45;99378.47;;;2.72;61.18
21803;BME280;18591;47.080;22.214;2023-12-20T05:45:48;99373.16;;;2.72;61.48
21803;BME280;18591;47.080;22.214;2023-12-20T05:47:50;99371.41;;;2.73;61.31
21803;BME280;18591;47.080;22.214;2023-12-20T05:49:53;99371.38;;;2.76;60.95
21803;BME280;18591;47.080;22.214;2023-12-20T05:51:55;99372.25;;;2.76;60.71
21803;BME280;18591;47.080;22.214;2023-12-20T05:53:58;99371.50;;;2.59;60.97
21803;BME280;18591;47.080;22.214;2023-12-20T05:56:01;99375.03;;;2.63;60.97
21803;BME280;18591;47.080;22.214;2023-12-20T05:58:03;99366.16;;;2.64;61.04
21803;BME280;18591;47.080;22.214;2023-12-20T06:00:07;99359.97;;;2.65;60.78
21803;BME280;18591;47.080;22.214;2023-12-20T06:02:14;99361.81;;;2.56;61.58
21803;BME280;18591;47.080;22.214;2023-12-20T06:04:17;99352.09;;;2.54;61.65
21803;BME280;18591;47.080;22.214;2023-12-20T06:06:20;99359.19;;;2.55;61.71
21803;BME280;18591;47.080;22.214;2023-12-20T06:08:23;99354.75;;;2.55;61.57
21803;BME280;18591;47.080;22.214;2023-12-20T06:10:25;99346.81;;;2.57;61.22
21803;BME280;18591;47.080;22.214;2023-12-20T06:12:28;99346.69;;;2.65;61.61
21803;BME280;18591;47.080;22.214;2023-12-20T06:14:31;99358.22;;;2.64;61.81
21803;BME280;18591;47.080;22.214;2023-12-20T06:16:33;99360.91;;;2.62;61.32
21803;BME280;18591;47.080;22.214;2023-12-20T06:18:36;99365.34;;;2.58;62.07
21803;BME280;18591;47.080;22.214;2023-12-20T06:20:41;99370.56;;;2.68;62.41
21803;BME280;18591;47.080;22.214;2023-12-20T06:22:43;99366.09;;;2.70;62.51
21803;BME280;18591;47.080;22.214;2023-12-20T06:24:46;99373.16;;;2.74;61.76
21803;BME280;18591;47.080;22.214;2023-12-20T06:26:49;99359.81;;;2.83;61.47
21803;BME280;18591;47.080;22.214;2023-12-20T06:28:51;99363.34;;;2.83;61.49
21803;BME280;18591;47.080;22.214;2023-12-20T06:30:54;99364.38;;;2.66;62.18
21803;BME280;18591;47.080;22.214;2023-12-20T06:32:57;99359.88;;;2.75;61.99
21803;BME280;18591;47.080;22.214;2023-12-20T06:35:00;99362.50;;;2.78;61.87
21803;BME280;18591;47.080;22.214;2023-12-20T06:37:02;99366.91;;;2.81;62.41
21803;BME280;18591;47.080;22.214;2023-12-20T06:39:05;99368.56;;;2.90;61.70
21803;BME280;18591;47.080;22.214;2023-12-20T06:41:07;99373.22;;;2.66;61.98
21803;BME280;18591;47.080;22.214;2023-12-20T06:43:10;99371.38;;;2.76;61.98
21803;BME280;18591;47.080;22.214;2023-12-20T06:45:27;99372.13;;;2.89;62.16
21803;BME280;18591;47.080;22.214;2023-12-20T06:47:29;99373.91;;;2.87;62.47
21803;BME280;18591;47.080;22.214;2023-12-20T06:49:31;99371.16;;;2.99;61.97
21803;BME280;18591;47.080;22.214;2023-12-20T06:51:34;99376.34;;;3.11;61.87
21803;BME280;18591;47.080;22.214;2023-12-20T06:53:37;99371.94;;;3.05;61.93
21803;BME280;18591;47.080;22.214;2023-12-20T06:55:39;99372.84;;;3.06;61.99
21803;BME280;18591;47.080;22.214;2023-12-20T06:57:41;99373.81;;;2.97;62.27
21803;BME280;18591;47.080;22.214;2023-12-20T06:59:44;99372.03;;;2.98;62.59
21803;BME280;18591;47.080;22.214;2023-12-20T07:01:50;99374.72;;;2.96;62.66
21803;BME280;18591;47.080;22.214;2023-12-20T07:03:52;99372.78;;;3.14;62.95
21803;BME280;18591;47.080;22.214;2023-12-20T07:05:55;99377.09;;;3.22;63.07
21803;BME280;18591;47.080;22.214;2023-12-20T07:07:57;99365.38;;;3.40;62.75
21803;BME280;18591;47.080;22.214;2023-12-20T07:10:00;99366.19;;;3.44;62.33
21803;BME280;18591;47.080;22.214;2023-12-20T07:12:02;99367.00;;;3.52;62.23
21803;BME280;18591;47.080;22.214;2023-12-20T07:14:05;99372.22;;;3.60;62.11
21803;BME280;18591;47.080;22.214;2023-12-20T07:16:07;99367.75;;;3.63;62.35
21803;BME280;18591;47.080;22.214;2023-12-20T07:18:10;99365.81;;;3.76;62.30
21803;BME280;18591;47.080;22.214;2023-12-20T07:20:13;99368.47;;;3.78;62.76
21803;BME280;18591;47.080;22.214;2023-12-20T07:22:15;99364.72;;;3.91;62.46
21803;BME280;18591;47.080;22.214;2023-12-20T07:24:18;99366.47;;;3.92;62.72
21803;BME280;18591;47.080;22.214;2023-12-20T07:26:20;99371.69;;;3.98;63.30
21803;BME280;18591;47.080;22.214;2023-12-20T07:28:23;99368.00;;;4.08;63.48
21803;BME280;18591;47.080;22.214;2023-12-20T07:30:26;99359.03;;;4.17;62.94
21803;BME280;18591;47.080;22.214;2023-12-20T07:32:28;99354.28;;;4.36;62.65
21803;BME280;18591;47.080;22.214;2023-12-20T07:34:31;99357.63;;;4.50;62.30
21803;BME280;18591;47.080;22.214;2023-12-20T07:36:36;99347.78;;;4.54;62.25
21803;BME280;18591;47.080;22.214;2023-12-20T07:38:39;99354.88;;;4.55;61.90
21803;BME280;18591;47.080;22.214;2023-12-20T07:40:41;99347.44;;;4.75;61.91
21803;BME280;18591;47.080;22.214;2023-12-20T07:42:44;99340.13;;;4.87;61.75
21803;BME280;18591;47.080;22.214;2023-12-20T07:44:46;99344.38;;;4.97;61.83
21803;BME280;18591;47.080;22.214;2023-12-20T07:46:49;99336.16;;;5.09;61.29
21803;BME280;18591;47.080;22.214;2023-12-20T07:48:52;99325.38;;;5.17;61.55
21803;BME280;18591;47.080;22.214;2023-12-20T07:50:54;99321.63;;;5.26;61.28
21803;BME280;18591;47.080;22.214;2023-12-20T07:52:57;99319.00;;;5.24;61.85
21803;BME280;18591;47.080;22.214;2023-12-20T07:55:01;99312.53;;;5.36;61.53
21803;BME280;18591;47.080;22.214;2023-12-20T07:57:04;99310.41;;;5.53;61.59
21803;BME280;18591;47.080;22.214;2023-12-20T07:59:06;99310.25;;;5.61;61.31
21803;BME280;18591;47.080;22.214;2023-12-20T08:01:22;99322.47;;;5.70;61.44
21803;BME280;18591;47.080;22.214;2023-12-20T08:03:25;99320.59;;;5.75;61.23
21803;BME280;18591;47.080;22.214;2023-12-20T08:05:27;99315.91;;;5.86;61.27
21803;BME280;18591;47.080;22.214;2023-12-20T08:07:30;99318.59;;;5.84;61.17
21803;BME280;18591;47.080;22.214;2023-12-20T08:09:32;99322.06;;;5.88;60.35
21803;BME280;18591;47.080;22.214;2023-12-20T08:11:36;99318.63;;;5.83;60.35
21803;BME280;18591;47.080;22.214;2023-12-20T08:13:38;99319.63;;;5.79;60.25
21803;BME280;18591;47.080;22.214;2023-12-20T08:15:41;99321.47;;;5.75;60.63
21803;BME280;18591;47.080;22.214;2023-12-20T08:17:43;99315.47;;;5.65;60.93
21803;BME280;18591;47.080;22.214;2023-12-20T08:19:46;99318.41;;;5.53;61.32
21803;BME280;18591;47.080;22.214;2023-12-20T08:21:49;99322.72;;;5.57;61.29
21803;BME280;18591;47.080;22.214;2023-12-20T08:23:51;99315.66;;;5.56;61.09
21803;BME280;18591;47.080;22.214;2023-12-20T08:25:54;99321.84;;;5.58;61.23
21803;BME280;18591;47.080;22.214;2023-12-20T08:27:56;99307.47;;;5.65;60.86
21803;BME280;18591;47.080;22.214;2023-12-20T08:29:59;99314.03;;;5.49;61.02
21803;BME280;18591;47.080;22.214;2023-12-20T08:32:01;99310.31;;;5.58;60.86
21803;BME280;18591;47.080;22.214;2023-12-20T08:34:04;99310.97;;;5.67;60.93
21803;BME280;18591;47.080;22.214;2023-12-20T08:36:09;99309.13;;;5.71;60.52
21803;BME280;18591;47.080;22.214;2023-12-20T08:38:12;99299.34;;;5.70;60.39
21803;BME280;18591;47.080;22.214;2023-12-20T08:40:15;99296.75;;;5.68;60.29
21803;BME280;18591;47.080;22.214;2023-12-20T08:42:17;99301.13;;;5.71;60.03
21803;BME280;18591;47.080;22.214;2023-12-20T08:44:20;99298.72;;;5.59;60.53
21803;BME280;18591;47.080;22.214;2023-12-20T08:46:24;99304.84;;;5.64;60.27
21803;BME280;18591;47.080;22.214;2023-12-20T08:48:27;99295.81;;;5.70;60.12
21803;BME280;18591;47.080;22.214;2023-12-20T08:50:31;99295.03;;;5.66;60.08
21803;BME280;18591;47.080;22.214;2023-12-20T08:52:33;99303.03;;;5.64;59.97
21803;BME280;18591;47.080;22.214;2023-12-20T08:54:36;99301.25;;;5.65;59.75
21803;BME280;18591;47.080;22.214;2023-12-20T08:56:38;99294.09;;;5.67;60.17
21803;BME280;18591;47.080;22.214;2023-12-20T08:58:41;99301.31;;;5.63;59.98
21803;BME280;18591;47.080;22.214;2023-12-20T09:00:44;99289.97;;;5.52;60.25
21803;BME280;18591;47.080;22.214;2023-12-20T09:02:47;99288.25;;;5.51;60.25
21803;BME280;18591;47.080;22.214;2023-12-20T09:04:49;99287.28;;;5.54;60.42
21803;BME280;18591;47.080;22.214;2023-12-20T09:06:52;99282.28;;;5.40;60.90
21803;BME280;18591;47.080;22.214;2023-12-20T09:08:55;99285.81;;;5.40;60.95
21803;BME280;18591;47.080;22.214;2023-12-20T09:10:57;99283.09;;;5.42;60.51
21803;BME280;18591;47.080;22.214;2023-12-20T09:13:00;99278.44;;;5.52;60.74
21803;BME280;18591;47.080;22.214;2023-12-20T09:15:02;99268.78;;;5.48;60.25
21803;BME280;18591;47.080;22.214;2023-12-20T09:17:05;99264.94;;;5.61;60.44
21803;BME280;18591;47.080;22.214;2023-12-20T09:19:10;99266.47;;;5.71;60.48
21803;BME280;18591;47.080;22.214;2023-12-20T09:21:12;99260.09;;;5.78;60.33
21803;BME280;18591;47.080;22.214;2023-12-20T09:23:15;99256.44;;;5.82;60.04
21803;BME280;18591;47.080;22.214;2023-12-20T09:25:17;99255.50;;;5.85;60.24
21803;BME280;18591;47.080;22.214;2023-12-20T09:27:20;99255.59;;;5.80;60.16
21803;BME280;18591;47.080;22.214;2023-12-20T09:29:23;99246.50;;;5.89;60.10
21803;BME280;18591;47.080;22.214;2023-12-20T09:31:25;99252.63;;;5.93;60.60
21803;BME280;18591;47.080;22.214;2023-12-20T09:33:28;99241.13;;;5.90;60.50
21803;BME280;18591;47.080;22.214;2023-12-20T09:35:30;99231.31;;;5.93;60.26
21803;BME280;18591;47.080;22.214;2023-12-20T09:37:33;99227.78;;;5.92;60.71
21803;BME280;18591;47.080;22.214;2023-12-20T09:39:35;99215.25;;;5.97;60.37
21803;BME280;18591;47.080;22.214;2023-12-20T09:41:43;99215.97;;;6.04;60.50
21803;BME280;18591;47.080;22.214;2023-12-20T09:43:45;99211.41;;;6.09;60.55
21803;BME280;18591;47.080;22.214;2023-12-20T09:45:48;99202.44;;;6.12;60.40
21803;BME280;18591;47.080;22.214;2023-12-20T09:47:53;99200.53;;;6.17;60.58
21803;BME280;18591;47.080;22.214;2023-12-20T09:49:57;99195.97;;;6.22;60.40
21803;BME280;18591;47.080;22.214;2023-12-20T09:52:00;99195.91;;;6.23;60.48
21803;BME280;18591;47.080;22.214;2023-12-20T09:54:03;99195.81;;;6.26;60.48
21803;BME280;18591;47.080;22.214;2023-12-20T09:56:06;99192.25;;;6.27;60.62
21803;BME280;18591;47.080;22.214;2023-12-20T09:58:09;99186.75;;;6.33;60.53
21803;BME280;18591;47.080;22.214;2023-12-20T10:00:13;99186.66;;;6.37;60.36
21803;BME280;18591;47.080;22.214;2023-12-20T10:02:17;99175.03;;;6.39;60.63
21803;BME280;18591;47.080;22.214;2023-12-20T10:04:23;99177.56;;;6.44;60.26
21803;BME280;18591;47.080;22.214;2023-12-20T10:06:31;99168.03;;;6.35;60.57
21803;BME280;18591;47.080;22.214;2023-12-20T10:08:34;99169.56;;;6.44;60.76
21803;BME280;18591;47.080;22.214;2023-12-20T10:10:36;99168.78;;;6.40;61.11
21803;BME280;18591;47.080;22.214;2023-12-20T10:13:06;99171.16;;;6.51;60.23
21803;BME280;18591;47.080;22.214;2023-12-20T10:15:09;99169.66;;;6.41;60.28
21803;BME280;18591;47.080;22.214;2023-12-20T10:17:12;99161.25;;;6.54;60.44
21803;BME280;18591;47.080;22.214;2023-12-20T10:19:17;99161.31;;;6.53;60.77
21803;BME280;18591;47.080;22.214;2023-12-20T10:21:21;99166.47;;;6.59;61.10
21803;BME280;18591;47.080;22.214;2023-12-20T10:23:24;99167.31;;;6.61;61.90
21803;BME280;18591;47.080;22.214;2023-12-20T10:25:26;99172.47;;;6.67;62.33
21803;BME280;18591;47.080;22.214;2023-12-20T10:27:30;99168.53;;;6.81;61.79
21803;BME280;18591;47.080;22.214;2023-12-20T10:29:35;99166.75;;;6.81;62.84
21803;BME280;18591;47.080;22.214;2023-12-20T10:31:39;99156.31;;;6.73;61.13
21803;BME280;18591;47.080;22.214;2023-12-20T10:33:44;99147.25;;;6.78;61.13
21803;BME280;18591;47.080;22.214;2023-12-20T10:35:47;99137.22;;;6.86;60.86
21803;BME280;18591;47.080;22.214;2023-12-20T10:37:52;99126.19;;;6.98;60.78
21803;BME280;18591;47.080;22.214;2023-12-20T10:39:59;99122.66;;;6.97;60.18
21803;BME280;18591;47.080;22.214;2023-12-20T10:42:03;99132.25;;;7.03;60.21
21803;BME280;18591;47.080;22.214;2023-12-20T10:44:08;99127.88;;;7.01;60.30
21803;BME280;18591;47.080;22.214;2023-12-20T10:46:12;99131.50;;;7.00;60.74
21803;BME280;18591;47.080;22.214;2023-12-20T10:48:16;99123.28;;;7.06;61.00
21803;BME280;18591;47.080;22.214;2023-12-20T10:50:19;99129.72;;;6.98;61.38
21803;BME280;18591;47.080;22.214;2023-12-20T10:52:23;99123.88;;;7.15;61.15